sensor_id;sensor_type;location;lat;lon;timestamp;temperature;humidity
13742;DHT22;8461;52.356;10.704;2022-09-13T00:00:27;13.90;99.90
13742;DHT22;8461;52.356;10.704;2022-09-13T00:02:53;13.90;99.90
13742;DHT22;8461;52.356;10.704;2022-09-13T00:05:19;13.90;99.90
13742;DHT22;8461;52.356;10.704;2022-09-13T00:07:44;13.90;99.90
13742;DHT22;8461;52.356;10.704;2022-09-13T00:10:10;13.80;99.90
13742;DHT22;8461;52.356;10.704;2022-09-13T00:12:36;13.80;99.90
13742;DHT22;8461;52.356;10.704;2022-09-13T00:15:02;13.80;99.90
13742;DHT22;8461;52.356;10.704;2022-09-13T00:17:27;13.80;99.90
13742;DHT22;8461;52.356;10.704;2022-09-13T00:19:53;13.90;99.90
13742;DHT22;8461;52.356;10.704;2022-09-13T00:22:19;13.90;99.90
13742;DHT22;8461;52.356;10.704;2022-09-13T00:24:44;13.90;99.90
13742;DHT22;8461;52.356;10.704;2022-09-13T00:27:10;13.90;99.90
13742;DHT22;8461;52.356;10.704;2022-09-13T00:29:37;13.90;99.90
13742;DHT22;8461;52.356;10.704;2022-09-13T00:32:02;13.90;99.90
13742;DHT22;8461;52.356;10.704;2022-09-13T00:34:28;13.90;99.90
13742;DHT22;8461;52.356;10.704;2022-09-13T00:36:53;13.90;99.90
13742;DHT22;8461;52.356;10.704;2022-09-13T00:39:19;13.90;99.90
13742;DHT22;8461;52.356;10.704;2022-09-13T00:41:45;13.80;99.90
13742;DHT22;8461;52.356;10.704;2022-09-13T00:47:16;13.70;99.90
13742;DHT22;8461;52.356;10.704;2022-09-13T00:49:46;13.70;99.90
13742;DHT22;8461;52.356;10.704;2022-09-13T00:52:16;13.60;99.90
13742;DHT22;8461;52.356;10.704;2022-09-13T00:54:51;13.50;99.90
13742;DHT22;8461;52.356;10.704;2022-09-13T00:57:19;13.50;99.90
13742;DHT22;8461;52.356;10.704;2022-09-13T01:00:01;13.40;99.90
13742;DHT22;8461;52.356;10.704;2022-09-13T01:02:32;13.40;99.90
13742;DHT22;8461;52.356;10.704;2022-09-13T01:04:58;13.40;99.90
13742;DHT22;8461;52.356;10.704;2022-09-13T01:07:24;13.30;99.90
13742;DHT22;8461;52.356;10.704;2022-09-13T01:09:50;13.20;99.90
13742;DHT22;8461;52.356;10.704;2022-09-13T01:14:52;13.20;99.90
13742;DHT22;8461;52.356;10.704;2022-09-13T01:17:19;13.10;99.90
13742;DHT22;8461;52.356;10.704;2022-09-13T01:19:45;13.10;99.90
13742;DHT22;8461;52.356;10.704;2022-09-13T01:30:23;13.00;99.90
13742;DHT22;8461;52.356;10.704;2022-09-13T01:38:14;13.00;99.90
13742;DHT22;8461;52.356;10.704;2022-09-13T01:43:55;12.90;99.90
13742;DHT22;8461;52.356;10.704;2022-09-13T01:46:27;12.90;99.90
13742;DHT22;8461;52.356;10.704;2022-09-13T01:48:54;12.90;99.90
13742;DHT22;8461;52.356;10.704;2022-09-13T01:51:31;12.90;99.90
13742;DHT22;8461;52.356;10.704;2022-09-13T01:57:14;13.00;99.90
13742;DHT22;8461;52.356;10.704;2022-09-13T02:02:31;13.10;99.90
13742;DHT22;8461;52.356;10.704;2022-09-13T02:05:13;13.00;99.90
13742;DHT22;8461;52.356;10.704;2022-09-13T02:07:42;13.00;99.90
13742;DHT22;8461;52.356;10.704;2022-09-13T02:10:50;12.90;99.90
13742;DHT22;8461;52.356;10.704;2022-09-13T02:13:22;12.90;99.90
13742;DHT22;8461;52.356;10.704;2022-09-13T02:15:53;12.90;99.90
13742;DHT22;8461;52.356;10.704;2022-09-13T02:18:25;12.80;99.90
13742;DHT22;8461;52.356;10.704;2022-09-13T02:20:52;12.80;99.90
13742;DHT22;8461;52.356;10.704;2022-09-13T02:23:35;12.70;99.90
13742;DHT22;8461;52.356;10.704;2022-09-13T02:26:03;12.70;99.90
13742;DHT22;8461;52.356;10.704;2022-09-13T02:28:37;12.70;99.90
13742;DHT22;8461;52.356;10.704;2022-09-13T02:31:07;12.70;99.90
13742;DHT22;8461;52.356;10.704;2022-09-13T02:33:40;12.70;99.90
13742;DHT22;8461;52.356;10.704;2022-09-13T02:36:21;12.70;99.90
13742;DHT22;8461;52.356;10.704;2022-09-13T02:41:26;12.70;99.90
13742;DHT22;8461;52.356;10.704;2022-09-13T02:44:05;12.70;99.90
13742;DHT22;8461;52.356;10.704;2022-09-13T02:46:59;12.80;99.90
13742;DHT22;8461;52.356;10.704;2022-09-13T02:49:34;13.00;99.90
13742;DHT22;8461;52.356;10.704;2022-09-13T02:52:35;13.00;99.90
13742;DHT22;8461;52.356;10.704;2022-09-13T02:55:27;13.10;99.90
13742;DHT22;8461;52.356;10.704;2022-09-13T02:58:05;13.10;99.90
13742;DHT22;8461;52.356;10.704;2022-09-13T03:00:34;13.20;99.90
13742;DHT22;8461;52.356;10.704;2022-09-13T03:03:03;13.30;99.90
13742;DHT22;8461;52.356;10.704;2022-09-13T03:05:29;13.30;99.90
13742;DHT22;8461;52.356;10.704;2022-09-13T03:07:56;13.30;99.90
13742;DHT22;8461;52.356;10.704;2022-09-13T03:10:23;13.40;99.90
13742;DHT22;8461;52.356;10.704;2022-09-13T03:18:02;13.50;99.90
13742;DHT22;8461;52.356;10.704;2022-09-13T03:20:45;13.50;99.90
13742;DHT22;8461;52.356;10.704;2022-09-13T03:31:47;13.80;99.90
13742;DHT22;8461;52.356;10.704;2022-09-13T03:34:33;13.90;99.90
13742;DHT22;8461;52.356;10.704;2022-09-13T03:37:54;14.00;99.90
13742;DHT22;8461;52.356;10.704;2022-09-13T03:40:08;13.90;99.90
13742;DHT22;8461;52.356;10.704;2022-09-13T03:42:46;13.80;99.90
13742;DHT22;8461;52.356;10.704;2022-09-13T03:45:16;13.90;99.90
13742;DHT22;8461;52.356;10.704;2022-09-13T03:47:44;13.90;99.90
13742;DHT22;8461;52.356;10.704;2022-09-13T03:50:15;13.90;99.90
13742;DHT22;8461;52.356;10.704;2022-09-13T03:52:43;13.90;99.90
13742;DHT22;8461;52.356;10.704;2022-09-13T03:55:09;13.90;99.90
13742;DHT22;8461;52.356;10.704;2022-09-13T03:57:36;13.90;99.90
13742;DHT22;8461;52.356;10.704;2022-09-13T04:00:01;14.00;99.90
13742;DHT22;8461;52.356;10.704;2022-09-13T04:02:27;14.00;99.90
13742;DHT22;8461;52.356;10.704;2022-09-13T04:04:53;14.00;99.90
13742;DHT22;8461;52.356;10.704;2022-09-13T04:07:21;13.90;99.90
13742;DHT22;8461;52.356;10.704;2022-09-13T04:09:47;13.90;99.90
13742;DHT22;8461;52.356;10.704;2022-09-13T04:12:14;13.90;99.90
13742;DHT22;8461;52.356;10.704;2022-09-13T04:14:41;13.90;99.90
13742;DHT22;8461;52.356;10.704;2022-09-13T04:17:08;13.80;99.90
13742;DHT22;8461;52.356;10.704;2022-09-13T04:19:34;13.80;99.90
13742;DHT22;8461;52.356;10.704;2022-09-13T04:21:59;13.80;99.90
13742;DHT22;8461;52.356;10.704;2022-09-13T04:24:26;13.80;99.90
13742;DHT22;8461;52.356;10.704;2022-09-13T04:26:52;13.80;99.90
13742;DHT22;8461;52.356;10.704;2022-09-13T04:29:19;13.80;99.90
13742;DHT22;8461;52.356;10.704;2022-09-13T04:31:45;13.80;99.90
13742;DHT22;8461;52.356;10.704;2022-09-13T04:34:11;13.80;99.90
13742;DHT22;8461;52.356;10.704;2022-09-13T04:36:37;13.90;99.90
13742;DHT22;8461;52.356;10.704;2022-09-13T04:39:03;13.90;99.90
13742;DHT22;8461;52.356;10.704;2022-09-13T04:41:29;13.90;99.90
13742;DHT22;8461;52.356;10.704;2022-09-13T04:43:56;13.90;99.90
13742;DHT22;8461;52.356;10.704;2022-09-13T04:46:21;13.90;99.90
13742;DHT22;8461;52.356;10.704;2022-09-13T04:48:48;13.90;99.90
13742;DHT22;8461;52.356;10.704;2022-09-13T04:51:14;14.00;99.90
13742;DHT22;8461;52.356;10.704;2022-09-13T04:53:39;14.00;99.90
13742;DHT22;8461;52.356;10.704;2022-09-13T04:56:05;14.00;99.90
13742;DHT22;8461;52.356;10.704;2022-09-13T04:58:32;14.00;99.90
13742;DHT22;8461;52.356;10.704;2022-09-13T05:01:05;14.00;99.90
13742;DHT22;8461;52.356;10.704;2022-09-13T05:03:32;14.00;99.90
13742;DHT22;8461;52.356;10.704;2022-09-13T05:06:06;14.10;99.90
13742;DHT22;8461;52.356;10.704;2022-09-13T05:08:32;14.20;99.90
13742;DHT22;8461;52.356;10.704;2022-09-13T05:10:58;14.10;99.90
13742;DHT22;8461;52.356;10.704;2022-09-13T05:13:24;14.10;99.90
13742;DHT22;8461;52.356;10.704;2022-09-13T05:15:57;14.10;99.90
13742;DHT22;8461;52.356;10.704;2022-09-13T05:18:30;14.20;99.90
13742;DHT22;8461;52.356;10.704;2022-09-13T05:20:57;14.20;99.90
13742;DHT22;8461;52.356;10.704;2022-09-13T05:23:24;14.20;99.90
13742;DHT22;8461;52.356;10.704;2022-09-13T05:25:58;14.20;99.90
13742;DHT22;8461;52.356;10.704;2022-09-13T05:28:30;14.30;99.90
13742;DHT22;8461;52.356;10.704;2022-09-13T05:30:59;14.30;99.90
13742;DHT22;8461;52.356;10.704;2022-09-13T05:33:27;14.30;99.90
13742;DHT22;8461;52.356;10.704;2022-09-13T05:35:53;14.30;99.90
13742;DHT22;8461;52.356;10.704;2022-09-13T05:38:19;14.30;99.90
13742;DHT22;8461;52.356;10.704;2022-09-13T05:40:45;14.30;99.90
13742;DHT22;8461;52.356;10.704;2022-09-13T05:43:11;14.40;99.90
13742;DHT22;8461;52.356;10.704;2022-09-13T05:45:37;14.40;99.90
13742;DHT22;8461;52.356;10.704;2022-09-13T05:48:03;14.40;99.90
13742;DHT22;8461;52.356;10.704;2022-09-13T05:50:29;14.40;99.90
13742;DHT22;8461;52.356;10.704;2022-09-13T05:52:55;14.50;99.90
13742;DHT22;8461;52.356;10.704;2022-09-13T05:55:21;14.50;99.90
13742;DHT22;8461;52.356;10.704;2022-09-13T05:57:48;14.60;99.90
13742;DHT22;8461;52.356;10.704;2022-09-13T06:00:15;14.60;99.90
13742;DHT22;8461;52.356;10.704;2022-09-13T06:02:41;14.60;99.90
13742;DHT22;8461;52.356;10.704;2022-09-13T06:05:08;14.70;99.90
13742;DHT22;8461;52.356;10.704;2022-09-13T06:07:35;14.70;99.90
13742;DHT22;8461;52.356;10.704;2022-09-13T06:10:01;14.80;99.90
13742;DHT22;8461;52.356;10.704;2022-09-13T06:12:27;14.80;99.90
13742;DHT22;8461;52.356;10.704;2022-09-13T06:14:52;14.80;99.90
13742;DHT22;8461;52.356;10.704;2022-09-13T06:17:18;14.80;99.90
13742;DHT22;8461;52.356;10.704;2022-09-13T06:19:43;14.90;99.90
13742;DHT22;8461;52.356;10.704;2022-09-13T06:22:09;14.90;99.90
13742;DHT22;8461;52.356;10.704;2022-09-13T06:24:34;14.90;99.90
13742;DHT22;8461;52.356;10.704;2022-09-13T06:27:02;15.00;99.90
13742;DHT22;8461;52.356;10.704;2022-09-13T06:29:27;15.00;99.90
13742;DHT22;8461;52.356;10.704;2022-09-13T06:31:53;15.00;99.90
13742;DHT22;8461;52.356;10.704;2022-09-13T06:34:18;15.10;99.90
13742;DHT22;8461;52.356;10.704;2022-09-13T06:36:44;15.10;99.90
13742;DHT22;8461;52.356;10.704;2022-09-13T06:39:09;15.20;99.90
13742;DHT22;8461;52.356;10.704;2022-09-13T06:41:35;15.20;99.90
13742;DHT22;8461;52.356;10.704;2022-09-13T06:44:02;15.20;99.90
13742;DHT22;8461;52.356;10.704;2022-09-13T06:46:29;15.20;99.90
13742;DHT22;8461;52.356;10.704;2022-09-13T06:48:58;15.20;99.90
13742;DHT22;8461;52.356;10.704;2022-09-13T06:51:24;15.30;99.90
13742;DHT22;8461;52.356;10.704;2022-09-13T06:53:51;15.30;99.90
13742;DHT22;8461;52.356;10.704;2022-09-13T06:56:21;15.40;99.90
13742;DHT22;8461;52.356;10.704;2022-09-13T06:58:48;15.40;99.90
13742;DHT22;8461;52.356;10.704;2022-09-13T07:03:46;15.50;99.90
13742;DHT22;8461;52.356;10.704;2022-09-13T07:06:15;15.50;99.90
13742;DHT22;8461;52.356;10.704;2022-09-13T07:08:42;15.60;99.90
13742;DHT22;8461;52.356;10.704;2022-09-13T07:11:09;15.70;99.90
13742;DHT22;8461;52.356;10.704;2022-09-13T07:13:36;15.80;99.90
13742;DHT22;8461;52.356;10.704;2022-09-13T07:16:03;16.00;99.90
13742;DHT22;8461;52.356;10.704;2022-09-13T07:18:29;16.10;99.90
13742;DHT22;8461;52.356;10.704;2022-09-13T07:21:02;16.20;99.90
13742;DHT22;8461;52.356;10.704;2022-09-13T07:23:30;16.30;99.90
13742;DHT22;8461;52.356;10.704;2022-09-13T07:25:56;16.40;99.90
13742;DHT22;8461;52.356;10.704;2022-09-13T07:28:27;16.40;99.90
13742;DHT22;8461;52.356;10.704;2022-09-13T07:30:54;16.60;99.90
13742;DHT22;8461;52.356;10.704;2022-09-13T07:33:20;16.70;99.90
13742;DHT22;8461;52.356;10.704;2022-09-13T07:35:45;16.70;99.90
13742;DHT22;8461;52.356;10.704;2022-09-13T07:38:11;16.80;99.90
13742;DHT22;8461;52.356;10.704;2022-09-13T07:40:36;16.70;99.90
13742;DHT22;8461;52.356;10.704;2022-09-13T07:43:02;16.70;99.90
13742;DHT22;8461;52.356;10.704;2022-09-13T07:45:27;16.80;99.90
13742;DHT22;8461;52.356;10.704;2022-09-13T07:47:53;16.90;99.90
13742;DHT22;8461;52.356;10.704;2022-09-13T07:50:20;16.90;99.90
13742;DHT22;8461;52.356;10.704;2022-09-13T07:52:45;16.90;99.90
13742;DHT22;8461;52.356;10.704;2022-09-13T07:55:11;17.00;99.90
13742;DHT22;8461;52.356;10.704;2022-09-13T07:57:36;17.00;99.90
13742;DHT22;8461;52.356;10.704;2022-09-13T08:00:02;17.00;99.90
13742;DHT22;8461;52.356;10.704;2022-09-13T08:02:29;17.20;99.90
13742;DHT22;8461;52.356;10.704;2022-09-13T08:04:55;17.30;99.90
13742;DHT22;8461;52.356;10.704;2022-09-13T08:07:20;17.30;99.90
13742;DHT22;8461;52.356;10.704;2022-09-13T08:09:46;17.40;99.90
13742;DHT22;8461;52.356;10.704;2022-09-13T08:12:12;17.40;99.90
13742;DHT22;8461;52.356;10.704;2022-09-13T08:14:37;17.40;99.90
13742;DHT22;8461;52.356;10.704;2022-09-13T08:17:03;17.50;99.90
13742;DHT22;8461;52.356;10.704;2022-09-13T08:19:28;17.60;99.90
13742;DHT22;8461;52.356;10.704;2022-09-13T08:21:54;17.60;99.90
13742;DHT22;8461;52.356;10.704;2022-09-13T08:24:20;17.60;99.90
13742;DHT22;8461;52.356;10.704;2022-09-13T08:26:46;17.70;99.90
13742;DHT22;8461;52.356;10.704;2022-09-13T08:29:12;17.60;99.90
13742;DHT22;8461;52.356;10.704;2022-09-13T08:31:38;17.50;99.90
13742;DHT22;8461;52.356;10.704;2022-09-13T08:34:06;17.40;99.90
13742;DHT22;8461;52.356;10.704;2022-09-13T08:36:32;17.30;99.90
13742;DHT22;8461;52.356;10.704;2022-09-13T08:38:59;17.10;99.90
13742;DHT22;8461;52.356;10.704;2022-09-13T08:46:53;16.60;99.90
13742;DHT22;8461;52.356;10.704;2022-09-13T08:49:33;16.50;99.90
13742;DHT22;8461;52.356;10.704;2022-09-13T08:52:32;16.50;99.90
13742;DHT22;8461;52.356;10.704;2022-09-13T08:55:07;16.50;99.90
13742;DHT22;8461;52.356;10.704;2022-09-13T08:57:53;16.50;99.90
13742;DHT22;8461;52.356;10.704;2022-09-13T09:00:34;16.50;99.90
13742;DHT22;8461;52.356;10.704;2022-09-13T09:03:20;16.50;99.90
13742;DHT22;8461;52.356;10.704;2022-09-13T09:05:49;16.50;99.90
13742;DHT22;8461;52.356;10.704;2022-09-13T09:08:30;16.50;99.90
13742;DHT22;8461;52.356;10.704;2022-09-13T09:11:02;16.50;99.90
13742;DHT22;8461;52.356;10.704;2022-09-13T09:13:34;16.60;99.90
13742;DHT22;8461;52.356;10.704;2022-09-13T09:16:11;16.60;99.90
13742;DHT22;8461;52.356;10.704;2022-09-13T09:18:43;16.60;99.90
13742;DHT22;8461;52.356;10.704;2022-09-13T09:21:15;16.70;99.90
13742;DHT22;8461;52.356;10.704;2022-09-13T09:23:52;16.80;99.90
13742;DHT22;8461;52.356;10.704;2022-09-13T09:26:26;16.90;99.90
13742;DHT22;8461;52.356;10.704;2022-09-13T09:31:44;16.90;99.90
13742;DHT22;8461;52.356;10.704;2022-09-13T09:37:14;17.00;99.90
13742;DHT22;8461;52.356;10.704;2022-09-13T09:39:41;17.20;99.90
13742;DHT22;8461;52.356;10.704;2022-09-13T09:42:13;17.20;99.90
13742;DHT22;8461;52.356;10.704;2022-09-13T09:44:39;17.30;99.90
13742;DHT22;8461;52.356;10.704;2022-09-13T09:47:27;17.50;99.90
13742;DHT22;8461;52.356;10.704;2022-09-13T09:50:02;17.70;99.90
13742;DHT22;8461;52.356;10.704;2022-09-13T10:00:16;17.80;99.90
13742;DHT22;8461;52.356;10.704;2022-09-13T10:02:43;17.80;99.90
13742;DHT22;8461;52.356;10.704;2022-09-13T10:05:09;17.80;99.90
13742;DHT22;8461;52.356;10.704;2022-09-13T10:07:37;17.90;99.90
13742;DHT22;8461;52.356;10.704;2022-09-13T10:10:24;17.90;99.90
13742;DHT22;8461;52.356;10.704;2022-09-13T10:12:52;17.90;99.90
13742;DHT22;8461;52.356;10.704;2022-09-13T10:15:21;18.10;99.90
13742;DHT22;8461;52.356;10.704;2022-09-13T10:18:16;18.10;99.90
13742;DHT22;8461;52.356;10.704;2022-09-13T10:20:58;18.30;99.90
13742;DHT22;8461;52.356;10.704;2022-09-13T10:23:25;18.30;99.90
13742;DHT22;8461;52.356;10.704;2022-09-13T10:26:22;18.40;99.90
13742;DHT22;8461;52.356;10.704;2022-09-13T10:31:17;18.30;99.90
13742;DHT22;8461;52.356;10.704;2022-09-13T10:36:18;18.20;99.90
13742;DHT22;8461;52.356;10.704;2022-09-13T10:38:58;18.10;99.90
13742;DHT22;8461;52.356;10.704;2022-09-13T10:41:26;18.10;99.90
13742;DHT22;8461;52.356;10.704;2022-09-13T10:43:57;18.00;99.90
13742;DHT22;8461;52.356;10.704;2022-09-13T10:46:23;18.00;99.90
13742;DHT22;8461;52.356;10.704;2022-09-13T10:48:49;18.00;99.90
13742;DHT22;8461;52.356;10.704;2022-09-13T10:51:28;18.00;99.90
13742;DHT22;8461;52.356;10.704;2022-09-13T10:54:16;18.00;99.90
13742;DHT22;8461;52.356;10.704;2022-09-13T10:56:42;18.10;99.90
13742;DHT22;8461;52.356;10.704;2022-09-13T10:59:21;18.10;99.90
13742;DHT22;8461;52.356;10.704;2022-09-13T11:01:58;18.20;99.90
13742;DHT22;8461;52.356;10.704;2022-09-13T11:04:55;18.10;99.90
13742;DHT22;8461;52.356;10.704;2022-09-13T11:07:42;18.10;99.90
13742;DHT22;8461;52.356;10.704;2022-09-13T11:13:00;18.10;99.90
13742;DHT22;8461;52.356;10.704;2022-09-13T11:16:09;18.20;99.90
13742;DHT22;8461;52.356;10.704;2022-09-13T11:24:12;18.20;99.90
13742;DHT22;8461;52.356;10.704;2022-09-13T11:32:23;18.50;99.90
13742;DHT22;8461;52.356;10.704;2022-09-13T11:35:50;18.60;99.90
13742;DHT22;8461;52.356;10.704;2022-09-13T11:40:21;18.90;99.90
13742;DHT22;8461;52.356;10.704;2022-09-13T11:45:28;18.80;99.90
13742;DHT22;8461;52.356;10.704;2022-09-13T11:48:22;18.70;99.90
13742;DHT22;8461;52.356;10.704;2022-09-13T11:56:23;18.40;99.90
13742;DHT22;8461;52.356;10.704;2022-09-13T11:58:58;18.40;99.90
13742;DHT22;8461;52.356;10.704;2022-09-13T12:01:33;18.40;99.90
13742;DHT22;8461;52.356;10.704;2022-09-13T12:04:08;18.30;99.90
13742;DHT22;8461;52.356;10.704;2022-09-13T12:06:41;18.30;99.90
13742;DHT22;8461;52.356;10.704;2022-09-13T12:11:43;18.20;99.90
13742;DHT22;8461;52.356;10.704;2022-09-13T12:14:16;18.20;99.90
13742;DHT22;8461;52.356;10.704;2022-09-13T12:16:48;18.20;99.90
13742;DHT22;8461;52.356;10.704;2022-09-13T12:19:24;18.20;99.90
13742;DHT22;8461;52.356;10.704;2022-09-13T12:21:52;18.20;99.90
13742;DHT22;8461;52.356;10.704;2022-09-13T12:27:05;18.20;99.90
13742;DHT22;8461;52.356;10.704;2022-09-13T12:29:50;18.20;99.90
13742;DHT22;8461;52.356;10.704;2022-09-13T12:32:17;18.10;99.90
13742;DHT22;8461;52.356;10.704;2022-09-13T12:34:59;18.20;99.90
13742;DHT22;8461;52.356;10.704;2022-09-13T12:37:57;18.20;99.90
13742;DHT22;8461;52.356;10.704;2022-09-13T12:43:24;18.20;99.90
13742;DHT22;8461;52.356;10.704;2022-09-13T12:57:12;18.30;99.90
13742;DHT22;8461;52.356;10.704;2022-09-13T12:59:54;18.30;99.90
13742;DHT22;8461;52.356;10.704;2022-09-13T13:05:23;18.50;99.90
13742;DHT22;8461;52.356;10.704;2022-09-13T13:07:52;18.50;99.90
13742;DHT22;8461;52.356;10.704;2022-09-13T13:10:38;18.40;99.90
13742;DHT22;8461;52.356;10.704;2022-09-13T13:13:14;18.40;99.90
13742;DHT22;8461;52.356;10.704;2022-09-13T13:18:46;18.40;99.90
13742;DHT22;8461;52.356;10.704;2022-09-13T13:29:30;18.50;99.90
13742;DHT22;8461;52.356;10.704;2022-09-13T13:36:49;18.90;99.90
13742;DHT22;8461;52.356;10.704;2022-09-13T13:41:56;19.00;99.90
13742;DHT22;8461;52.356;10.704;2022-09-13T13:46:51;19.30;99.90
13742;DHT22;8461;52.356;10.704;2022-09-13T13:49:43;19.30;99.90
13742;DHT22;8461;52.356;10.704;2022-09-13T13:57:35;19.60;99.90
13742;DHT22;8461;52.356;10.704;2022-09-13T14:00:15;19.70;99.90
13742;DHT22;8461;52.356;10.704;2022-09-13T14:08:58;19.90;99.90
13742;DHT22;8461;52.356;10.704;2022-09-13T14:11:50;19.90;99.90
13742;DHT22;8461;52.356;10.704;2022-09-13T14:19:52;19.70;99.90
13742;DHT22;8461;52.356;10.704;2022-09-13T14:22:27;19.70;99.90
13742;DHT22;8461;52.356;10.704;2022-09-13T14:24:56;19.70;99.90
13742;DHT22;8461;52.356;10.704;2022-09-13T14:27:29;19.70;99.90
13742;DHT22;8461;52.356;10.704;2022-09-13T14:30:00;19.70;99.90
13742;DHT22;8461;52.356;10.704;2022-09-13T14:32:29;19.60;99.90
13742;DHT22;8461;52.356;10.704;2022-09-13T14:35:02;19.60;99.90
13742;DHT22;8461;52.356;10.704;2022-09-13T14:37:37;19.50;99.90
13742;DHT22;8461;52.356;10.704;2022-09-13T14:42:44;19.60;99.90
13742;DHT22;8461;52.356;10.704;2022-09-13T14:45:15;19.60;99.90
13742;DHT22;8461;52.356;10.704;2022-09-13T14:48:03;19.60;99.90
13742;DHT22;8461;52.356;10.704;2022-09-13T14:50:34;19.60;99.90
13742;DHT22;8461;52.356;10.704;2022-09-13T14:53:05;19.60;99.90
13742;DHT22;8461;52.356;10.704;2022-09-13T14:56:15;19.70;99.90
13742;DHT22;8461;52.356;10.704;2022-09-13T14:58:51;19.60;99.90
13742;DHT22;8461;52.356;10.704;2022-09-13T15:01:21;19.60;99.90
13742;DHT22;8461;52.356;10.704;2022-09-13T15:03:50;19.60;99.90
13742;DHT22;8461;52.356;10.704;2022-09-13T15:06:25;19.60;99.90
13742;DHT22;8461;52.356;10.704;2022-09-13T15:08:52;19.60;99.90
13742;DHT22;8461;52.356;10.704;2022-09-13T15:11:33;19.60;99.90
13742;DHT22;8461;52.356;10.704;2022-09-13T15:16:48;19.40;99.90
13742;DHT22;8461;52.356;10.704;2022-09-13T15:19:15;19.40;99.90
13742;DHT22;8461;52.356;10.704;2022-09-13T15:21:41;19.50;99.90
13742;DHT22;8461;52.356;10.704;2022-09-13T15:24:34;19.50;99.90
13742;DHT22;8461;52.356;10.704;2022-09-13T15:27:02;19.60;99.90
13742;DHT22;8461;52.356;10.704;2022-09-13T15:29:27;19.60;99.90
13742;DHT22;8461;52.356;10.704;2022-09-13T15:31:59;19.60;99.90
13742;DHT22;8461;52.356;10.704;2022-09-13T15:34:25;19.70;99.90
13742;DHT22;8461;52.356;10.704;2022-09-13T15:37:10;19.70;99.90
13742;DHT22;8461;52.356;10.704;2022-09-13T15:39:49;19.70;99.90
13742;DHT22;8461;52.356;10.704;2022-09-13T15:42:16;19.70;99.90
13742;DHT22;8461;52.356;10.704;2022-09-13T15:44:42;19.70;99.90
13742;DHT22;8461;52.356;10.704;2022-09-13T15:47:18;19.80;99.90
13742;DHT22;8461;52.356;10.704;2022-09-13T15:49:48;19.70;99.90
13742;DHT22;8461;52.356;10.704;2022-09-13T15:52:15;19.70;99.90
13742;DHT22;8461;52.356;10.704;2022-09-13T15:54:42;19.70;99.90
13742;DHT22;8461;52.356;10.704;2022-09-13T15:57:17;19.80;99.90
13742;DHT22;8461;52.356;10.704;2022-09-13T15:59:44;19.80;99.90
13742;DHT22;8461;52.356;10.704;2022-09-13T16:02:24;19.90;99.90
13742;DHT22;8461;52.356;10.704;2022-09-13T16:04:50;19.80;99.90
13742;DHT22;8461;52.356;10.704;2022-09-13T16:07:16;19.80;99.90
13742;DHT22;8461;52.356;10.704;2022-09-13T16:09:43;19.80;99.90
13742;DHT22;8461;52.356;10.704;2022-09-13T16:12:09;19.70;99.90
13742;DHT22;8461;52.356;10.704;2022-09-13T16:14:34;19.70;99.90
13742;DHT22;8461;52.356;10.704;2022-09-13T16:17:06;19.70;99.90
13742;DHT22;8461;52.356;10.704;2022-09-13T16:19:34;19.60;99.90
13742;DHT22;8461;52.356;10.704;2022-09-13T16:22:00;19.50;99.90
13742;DHT22;8461;52.356;10.704;2022-09-13T16:24:26;19.50;99.90
13742;DHT22;8461;52.356;10.704;2022-09-13T16:26:52;19.40;99.90
13742;DHT22;8461;52.356;10.704;2022-09-13T16:29:17;19.40;99.90
13742;DHT22;8461;52.356;10.704;2022-09-13T16:31:43;19.30;99.90
13742;DHT22;8461;52.356;10.704;2022-09-13T16:34:08;19.30;99.90
13742;DHT22;8461;52.356;10.704;2022-09-13T16:36:34;19.30;99.90
13742;DHT22;8461;52.356;10.704;2022-09-13T16:39:00;19.20;99.90
13742;DHT22;8461;52.356;10.704;2022-09-13T16:41:25;19.20;99.90
13742;DHT22;8461;52.356;10.704;2022-09-13T16:43:53;19.20;99.90
13742;DHT22;8461;52.356;10.704;2022-09-13T16:46:20;19.10;99.90
13742;DHT22;8461;52.356;10.704;2022-09-13T16:48:51;19.10;99.90
13742;DHT22;8461;52.356;10.704;2022-09-13T16:51:18;19.10;99.90
13742;DHT22;8461;52.356;10.704;2022-09-13T16:53:44;19.10;99.90
13742;DHT22;8461;52.356;10.704;2022-09-13T16:56:15;19.10;99.90
13742;DHT22;8461;52.356;10.704;2022-09-13T16:58:43;19.00;99.90
13742;DHT22;8461;52.356;10.704;2022-09-13T17:01:11;19.00;99.90
13742;DHT22;8461;52.356;10.704;2022-09-13T17:03:38;19.00;99.90
13742;DHT22;8461;52.356;10.704;2022-09-13T17:06:06;19.00;99.90
13742;DHT22;8461;52.356;10.704;2022-09-13T17:08:33;18.90;99.90
13742;DHT22;8461;52.356;10.704;2022-09-13T17:11:03;18.90;99.90
13742;DHT22;8461;52.356;10.704;2022-09-13T17:13:29;18.80;99.90
13742;DHT22;8461;52.356;10.704;2022-09-13T17:15:55;18.70;99.90
13742;DHT22;8461;52.356;10.704;2022-09-13T17:18:20;18.70;99.90
13742;DHT22;8461;52.356;10.704;2022-09-13T17:20:48;18.60;99.90
13742;DHT22;8461;52.356;10.704;2022-09-13T17:23:14;18.60;99.90
13742;DHT22;8461;52.356;10.704;2022-09-13T17:25:47;18.50;99.90
13742;DHT22;8461;52.356;10.704;2022-09-13T17:28:14;18.40;99.90
13742;DHT22;8461;52.356;10.704;2022-09-13T17:30:40;18.40;99.90
13742;DHT22;8461;52.356;10.704;2022-09-13T17:33:07;18.30;99.90
13742;DHT22;8461;52.356;10.704;2022-09-13T17:35:33;18.20;99.90
13742;DHT22;8461;52.356;10.704;2022-09-13T17:38:00;18.10;99.90
13742;DHT22;8461;52.356;10.704;2022-09-13T17:40:26;18.10;99.90
13742;DHT22;8461;52.356;10.704;2022-09-13T17:42:53;18.00;99.90
13742;DHT22;8461;52.356;10.704;2022-09-13T17:45:18;17.90;99.90
13742;DHT22;8461;52.356;10.704;2022-09-13T17:47:45;17.90;99.90
13742;DHT22;8461;52.356;10.704;2022-09-13T17:50:11;17.80;99.90
13742;DHT22;8461;52.356;10.704;2022-09-13T17:52:37;17.60;99.90
13742;DHT22;8461;52.356;10.704;2022-09-13T17:55:03;17.60;99.90
13742;DHT22;8461;52.356;10.704;2022-09-13T17:57:29;17.60;99.90
13742;DHT22;8461;52.356;10.704;2022-09-13T17:59:54;17.50;99.90
13742;DHT22;8461;52.356;10.704;2022-09-13T18:02:20;17.50;99.90
13742;DHT22;8461;52.356;10.704;2022-09-13T18:04:49;17.40;99.90
13742;DHT22;8461;52.356;10.704;2022-09-13T18:07:15;17.30;99.90
13742;DHT22;8461;52.356;10.704;2022-09-13T18:09:41;17.20;99.90
13742;DHT22;8461;52.356;10.704;2022-09-13T18:12:07;17.10;99.90
13742;DHT22;8461;52.356;10.704;2022-09-13T18:14:33;17.00;99.90
13742;DHT22;8461;52.356;10.704;2022-09-13T18:16:58;16.90;99.90
13742;DHT22;8461;52.356;10.704;2022-09-13T18:19:24;16.80;99.90
13742;DHT22;8461;52.356;10.704;2022-09-13T18:21:50;16.80;99.90
13742;DHT22;8461;52.356;10.704;2022-09-13T18:24:15;16.80;99.90
13742;DHT22;8461;52.356;10.704;2022-09-13T18:26:41;16.70;99.90
13742;DHT22;8461;52.356;10.704;2022-09-13T18:29:10;16.70;99.90
13742;DHT22;8461;52.356;10.704;2022-09-13T18:31:36;16.70;99.90